< < Back
Terminal Aerodrome Forecast


Current Version              Previous Versions:   1  2  3  4  5  6  7  8  9  

Terminal Aerodrome Forecast

251
FTUS42 KFFC 291230 AAA
TAFAHN
TAF AMD
KAHN 291230Z 2913/3012 00000KT P6SM FEW005 SCT150
     FM291330 32005KT P6SM SCT040 SCT250
     FM292300 VRB03KT P6SM SCT250=

Latest METAR

246
SAUS70 KWBC 291200
MTRAHN
METAR KAHN 291151Z 00000KT 10SM CLR 22/22 A2999 RMK AO2 SLP151 70018
T02220222 10222 20200 53009


USA.gov is the U.S. government's official web portal to all federal, state and local government web resources and services.